Time;durP1;ratioP1;P1;durP2;ratioP2;P2;SDS_P1;SDS_P2;PMS_P1;PMS_P2;Temp;Humidity;BMP_temperature;BMP_pressure;BME280_temperature;BME280_humidity;BME280_pressure;Samples;Min_cycle;Max_cycle;Signal;HPM_P1;HPM_P2
2022/05/01 00:00:16;;;;;;;25.30;13.07;;;8.60;99.90;;;;;;5053682;28;20602;-59
2022/05/01 00:02:43;;;;;;;25.20;12.57;;;8.60;99.90;;;;;;5053205;28;20240;-59
2022/05/01 00:05:10;;;;;;;26.67;12.90;;;8.50;99.90;;;;;;5053564;28;20209;-58
2022/05/01 00:07:38;;;;;;;27.00;13.00;;;8.40;99.90;;;;;;5053495;28;20599;-59
2022/05/01 00:10:06;;;;;;;25.87;13.17;;;8.40;99.90;;;;;;5053456;28;20228;-60
2022/05/01 00:12:34;;;;;;;23.37;11.87;;;8.40;99.90;;;;;;5053624;28;20221;-59
2022/05/01 00:15:00;;;;;;;30.30;15.73;;;8.40;99.90;;;;;;5053138;28;20224;-60
2022/05/01 00:17:27;;;;;;;27.37;15.07;;;8.30;99.90;;;;;;5053420;28;20765;-59
2022/05/01 00:19:55;;;;;;;29.17;15.97;;;8.20;99.90;;;;;;5053213;28;20654;-59
2022/05/01 00:22:22;;;;;;;32.13;16.27;;;8.10;99.90;;;;;;5053661;28;20205;-59
2022/05/01 00:24:50;;;;;;;31.63;15.53;;;8.10;99.90;;;;;;5052669;28;20295;-59
2022/05/01 00:27:17;;;;;;;29.90;14.73;;;8.00;99.90;;;;;;5052860;28;20221;-59
2022/05/01 00:29:44;;;;;;;24.03;12.07;;;8.00;99.90;;;;;;5053252;28;20205;-60
2022/05/01 00:32:11;;;;;;;25.90;12.17;;;8.10;99.90;;;;;;5052977;28;20761;-58
2022/05/01 00:37:22;;;;;;;25.27;12.27;;;8.10;99.90;;;;;;5053009;28;20180;-57
2022/05/01 00:39:50;;;;;;;27.07;12.33;;;8.10;99.90;;;;;;5052832;28;20201;-59
2022/05/01 00:42:18;;;;;;;27.70;12.83;;;8.10;99.90;;;;;;5052691;28;20213;-58
2022/05/01 00:44:45;;;;;;;30.00;13.80;;;8.10;99.90;;;;;;5052920;28;20251;-58
2022/05/01 00:47:12;;;;;;;28.03;13.53;;;8.10;99.90;;;;;;5052359;28;20228;-58
2022/05/01 00:49:39;;;;;;;26.30;13.30;;;8.10;99.90;;;;;;5052903;28;20201;-59
2022/05/01 00:52:08;;;;;;;29.53;14.60;;;8.10;99.90;;;;;;5052385;28;20205;-58
2022/05/01 00:54:37;;;;;;;30.07;14.23;;;8.10;99.90;;;;;;5052751;28;20201;-59
2022/05/01 00:57:06;;;;;;;26.57;13.80;;;8.10;99.90;;;;;;5052417;28;20201;-59
2022/05/01 00:59:35;;;;;;;25.17;14.03;;;8.10;99.90;;;;;;5052422;28;20209;-58
2022/05/01 01:02:02;;;;;;;28.70;14.63;;;8.00;99.90;;;;;;5052010;28;20246;-59
2022/05/01 01:04:29;;;;;;;27.43;14.67;;;7.90;99.90;;;;;;5052646;28;20328;-58
2022/05/01 01:06:56;;;;;;;28.80;14.60;;;7.80;99.90;;;;;;5052079;28;20221;-58
2022/05/01 01:09:23;;;;;;;33.30;15.80;;;7.80;99.90;;;;;;5052731;28;20205;-58
2022/05/01 01:12:53;;;;;;;33.23;16.43;;;7.70;99.90;;;;;;5052151;28;20212;-60
2022/05/01 01:14:40;;;;;;;29.63;14.80;;;7.70;99.90;;;;;;5051982;28;20258;-59
2022/05/01 01:17:07;;;;;;;31.37;16.30;;;7.60;99.90;;;;;;5052244;28;20288;-59
2022/05/01 01:19:34;;;;;;;30.40;15.70;;;7.60;99.90;;;;;;5052365;28;20201;-59
2022/05/01 01:22:04;;;;;;;31.37;15.60;;;7.50;99.90;;;;;;5051729;28;20206;-58
2022/05/01 01:24:32;;;;;;;32.67;15.73;;;7.50;99.90;;;;;;5051947;28;20189;-60
2022/05/01 01:26:58;;;;;;;34.30;16.27;;;7.50;99.90;;;;;;5052018;28;20551;-59
2022/05/01 01:32:13;;;;;;;37.30;15.23;;;7.50;99.90;;;;;;5051888;28;20184;-59
2022/05/01 01:34:43;;;;;;;30.67;15.83;;;7.60;99.90;;;;;;5052058;28;20205;-59
2022/05/01 01:37:14;;;;;;;32.47;16.47;;;7.60;99.90;;;;;;5051291;28;20227;-59
2022/05/01 01:39:41;;;;;;;32.47;15.80;;;7.60;99.90;;;;;;5051723;28;20201;-58
2022/05/01 01:42:12;;;;;;;29.07;14.70;;;7.50;99.90;;;;;;5051857;28;20208;-59
2022/05/01 01:44:39;;;;;;;31.47;15.57;;;7.50;99.90;;;;;;5051821;28;20244;-58
2022/05/01 01:47:06;;;;;;;35.30;15.93;;;7.40;99.90;;;;;;5051669;28;20235;-59
2022/05/01 01:49:34;;;;;;;35.10;15.80;;;7.40;99.90;;;;;;5051786;28;20263;-59
2022/05/01 01:52:01;;;;;;;30.00;14.80;;;7.40;99.90;;;;;;5051884;28;20623;-62
2022/05/01 01:54:29;;;;;;;29.33;14.97;;;7.40;99.90;;;;;;5051818;28;20218;-58
2022/05/01 01:56:56;;;;;;;27.93;15.27;;;7.40;99.90;;;;;;5051646;28;20201;-59
2022/05/01 01:59:23;;;;;;;33.30;15.53;;;7.40;99.90;;;;;;5051491;28;20209;-59
2022/05/01 02:01:50;;;;;;;33.63;16.20;;;7.40;99.90;;;;;;5051093;28;20244;-61
2022/05/01 02:04:17;;;;;;;36.00;16.33;;;7.50;99.90;;;;;;5051731;28;20211;-60
2022/05/01 02:06:44;;;;;;;34.77;15.13;;;7.50;99.90;;;;;;5051354;28;20241;-59
2022/05/01 02:09:12;;;;;;;33.97;15.20;;;7.50;99.90;;;;;;5051381;28;20275;-58
2022/05/01 02:11:40;;;;;;;28.70;15.03;;;7.50;99.90;;;;;;5051401;28;20213;-59
2022/05/01 02:14:07;;;;;;;25.93;14.30;;;7.60;99.90;;;;;;5051454;28;20209;-60
2022/05/01 02:16:34;;;;;;;30.47;14.87;;;7.50;99.90;;;;;;5051564;28;20216;-60
2022/05/01 02:19:01;;;;;;;29.83;15.10;;;7.50;99.90;;;;;;5051446;28;20201;-58
2022/05/01 02:21:36;;;;;;;24.07;13.03;;;7.40;99.90;;;;;;5051550;28;20232;-59
2022/05/01 02:24:08;;;;;;;26.03;14.13;;;7.40;99.90;;;;;;5051649;28;20557;-59
2022/05/01 02:26:36;;;;;;;30.50;15.13;;;7.40;99.90;;;;;;5051361;28;20724;-59
2022/05/01 02:29:09;;;;;;;28.63;15.20;;;7.30;99.90;;;;;;5051076;28;20224;-59
2022/05/01 02:31:38;;;;;;;28.83;15.27;;;7.30;99.90;;;;;;5051466;28;20196;-59
2022/05/01 02:34:04;;;;;;;28.80;15.07;;;7.30;99.90;;;;;;5051449;28;20293;-58
2022/05/01 02:36:31;;;;;;;33.37;15.33;;;7.30;99.90;;;;;;5051293;28;20228;-60
2022/05/01 02:38:58;;;;;;;28.93;15.43;;;7.20;99.90;;;;;;5050870;28;20209;-58
2022/05/01 02:41:25;;;;;;;30.87;15.30;;;7.20;99.90;;;;;;5051354;28;20263;-58
2022/05/01 02:43:52;;;;;;;32.23;15.43;;;7.20;99.90;;;;;;5050745;28;20202;-58
2022/05/01 02:46:20;;;;;;;29.40;15.53;;;7.20;99.90;;;;;;5051056;28;20210;-58
2022/05/01 02:48:47;;;;;;;32.67;15.47;;;7.20;99.90;;;;;;5051988;28;20228;-61
2022/05/01 02:51:14;;;;;;;30.43;15.90;;;7.20;99.90;;;;;;5054871;28;20205;-59
2022/05/01 02:53:40;;;;;;;35.03;16.63;;;7.20;99.90;;;;;;5054801;28;20587;-60
2022/05/01 02:56:07;;;;;;;35.93;17.17;;;7.10;99.90;;;;;;5054935;28;20205;-59
2022/05/01 02:58:34;;;;;;;36.30;17.03;;;7.20;99.90;;;;;;5054776;28;20224;-59
2022/05/01 03:01:01;;;;;;;28.63;15.80;;;7.20;99.90;;;;;;5054632;28;20205;-59
2022/05/01 03:03:29;;;;;;;33.43;16.27;;;7.20;99.90;;;;;;5054466;28;20290;-59
2022/05/01 03:05:58;;;;;;;26.07;13.37;;;7.20;99.90;;;;;;5054517;28;20205;-60
2022/05/01 03:08:26;;;;;;;31.50;14.30;;;7.20;99.90;;;;;;5054726;28;20275;-59
2022/05/01 03:10:53;;;;;;;34.30;15.03;;;7.20;99.90;;;;;;5054751;28;20205;-60
2022/05/01 03:13:20;;;;;;;27.17;14.60;;;7.20;99.90;;;;;;5055685;28;20721;-61
2022/05/01 03:15:47;;;;;;;28.77;14.90;;;7.20;99.90;;;;;;5054882;28;20201;-61
2022/05/01 03:23:45;;;;;;;28.87;14.67;;;7.20;99.90;;;;;;5054268;28;20209;-62
2022/05/01 03:26:12;;;;;;;27.07;14.07;;;7.30;99.90;;;;;;5054738;28;20206;-59
2022/05/01 03:28:39;;;;;;;29.03;14.40;;;7.30;99.90;;;;;;5054868;28;20237;-61
2022/05/01 03:31:09;;;;;;;30.53;15.17;;;7.30;99.90;;;;;;5054557;28;20205;-59
2022/05/01 03:33:36;;;;;;;32.93;15.43;;;7.40;99.90;;;;;;5054118;28;20292;-58
2022/05/01 03:36:07;;;;;;;30.47;14.70;;;7.40;99.90;;;;;;5053905;28;20311;-60
2022/05/01 03:38:36;;;;;;;28.97;15.07;;;7.50;99.90;;;;;;5054106;28;20192;-59
2022/05/01 03:41:04;;;;;;;26.93;14.40;;;7.60;99.90;;;;;;5053784;28;20216;-58
2022/05/01 03:43:32;;;;;;;33.87;15.83;;;7.60;99.90;;;;;;5054333;28;20301;-58
2022/05/01 03:45:59;;;;;;;31.97;15.07;;;7.70;99.90;;;;;;5053778;28;20209;-59
2022/05/01 03:48:26;;;;;;;33.80;16.47;;;7.80;99.90;;;;;;5053579;28;20221;-59
2022/05/01 03:50:53;;;;;;;28.20;15.37;;;7.90;99.90;;;;;;5054086;28;20208;-58
2022/05/01 03:53:22;;;;;;;29.97;15.13;;;8.00;99.90;;;;;;5053957;28;20201;-59
2022/05/01 03:55:51;;;;;;;33.90;15.53;;;8.10;99.90;;;;;;5053483;28;20205;-60
2022/05/01 03:58:18;;;;;;;31.97;15.23;;;8.20;99.90;;;;;;5053821;28;20219;-58
2022/05/01 04:00:47;;;;;;;34.57;15.67;;;8.30;99.90;;;;;;5052894;28;20387;-59
2022/05/01 04:03:14;;;;;;;33.03;15.40;;;8.40;99.90;;;;;;5053356;28;20716;-59
2022/05/01 04:05:41;;;;;;;33.53;15.00;;;8.50;99.90;;;;;;5053788;28;20201;-60
2022/05/01 04:08:09;;;;;;;31.33;15.10;;;8.50;99.90;;;;;;5053570;28;20244;-60
2022/05/01 04:10:38;;;;;;;32.03;15.53;;;8.70;99.90;;;;;;5053010;28;20675;-58
2022/05/01 04:13:06;;;;;;;32.67;16.20;;;8.80;99.90;;;;;;5053462;28;20205;-58
2022/05/01 04:15:33;;;;;;;37.53;16.97;;;9.00;99.90;;;;;;5053044;28;20210;-59
2022/05/01 04:18:02;;;;;;;30.57;15.90;;;9.10;99.90;;;;;;5053140;28;20237;-58
2022/05/01 04:20:30;;;;;;;30.10;15.97;;;9.20;99.90;;;;;;5053313;28;20212;-59
2022/05/01 04:22:57;;;;;;;30.13;15.77;;;9.40;99.90;;;;;;5053368;28;20212;-59
2022/05/01 04:25:26;;;;;;;30.03;15.03;;;9.50;99.90;;;;;;5052889;28;20210;-59
2022/05/01 04:27:59;;;;;;;29.47;14.90;;;9.60;99.90;;;;;;5053059;28;20206;-59
2022/05/01 04:30:27;;;;;;;35.73;16.50;;;9.70;99.90;;;;;;5053074;28;20604;-60
2022/05/01 04:32:55;;;;;;;30.10;15.67;;;9.80;99.90;;;;;;5053169;28;20236;-59
2022/05/01 04:35:25;;;;;;;26.80;14.60;;;10.00;99.90;;;;;;5052619;28;20209;-59
2022/05/01 04:37:52;;;;;;;26.00;13.80;;;10.10;99.90;;;;;;5053000;28;20277;-60
2022/05/01 04:40:19;;;;;;;23.67;13.07;;;10.20;99.90;;;;;;5052993;28;20228;-59
2022/05/01 04:42:46;;;;;;;22.60;12.40;;;10.40;99.90;;;;;;5052932;28;20202;-59
2022/05/01 04:45:15;;;;;;;25.53;12.20;;;10.50;99.90;;;;;;5052569;28;20225;-61
2022/05/01 04:47:42;;;;;;;19.87;11.30;;;10.70;99.90;;;;;;5052740;28;20208;-58
2022/05/01 04:50:11;;;;;;;26.37;12.57;;;10.80;99.90;;;;;;5052444;28;20208;-60
2022/05/01 04:52:39;;;;;;;22.07;11.90;;;10.90;99.90;;;;;;5052417;28;20205;-58
2022/05/01 04:55:07;;;;;;;19.40;11.37;;;11.00;99.90;;;;;;5052735;28;20204;-59
2022/05/01 04:57:33;;;;;;;18.53;10.53;;;11.10;99.90;;;;;;5052505;28;20563;-59
2022/05/01 05:00:01;;;;;;;18.90;10.37;;;11.30;99.90;;;;;;5052589;28;20201;-60
2022/05/01 05:02:37;;;;;;;15.80;9.30;;;11.30;99.90;;;;;;5051914;28;20291;-58
2022/05/01 05:05:05;;;;;;;16.00;9.60;;;11.50;99.90;;;;;;5052715;28;20196;-60
2022/05/01 05:07:32;;;;;;;16.33;8.23;;;11.60;99.90;;;;;;5052446;28;20205;-59
2022/05/01 05:09:58;;;;;;;11.67;7.10;;;11.80;99.90;;;;;;5051998;28;20355;-59
2022/05/01 05:12:25;;;;;;;9.40;5.43;;;11.90;99.90;;;;;;5052222;28;20655;-59
2022/05/01 05:14:55;;;;;;;10.23;5.33;;;12.00;99.90;;;;;;5052394;28;20213;-60
2022/05/01 05:17:23;;;;;;;7.50;4.73;;;12.10;99.90;;;;;;5052229;28;20518;-59
2022/05/01 05:19:51;;;;;;;9.23;6.00;;;12.20;99.90;;;;;;5052264;28;20228;-58
2022/05/01 05:22:18;;;;;;;8.60;5.23;;;12.30;99.90;;;;;;5052099;28;20205;-59
2022/05/01 05:24:45;;;;;;;8.07;4.47;;;12.40;99.90;;;;;;5052186;28;20296;-59
2022/05/01 05:27:12;;;;;;;5.37;3.57;;;12.50;99.90;;;;;;5052018;28;20668;-58
2022/05/01 05:29:40;;;;;;;6.00;3.63;;;12.60;99.90;;;;;;5051801;28;20232;-60
2022/05/01 05:32:08;;;;;;;8.70;4.60;;;12.70;99.90;;;;;;5051674;28;20210;-60
2022/05/01 05:34:35;;;;;;;7.40;4.40;;;12.70;99.90;;;;;;5051919;28;20575;-59
2022/05/01 05:37:03;;;;;;;8.17;5.03;;;12.80;99.90;;;;;;5051717;28;20580;-60
2022/05/01 05:39:30;;;;;;;10.07;5.80;;;12.90;99.90;;;;;;5051783;28;20205;-58
2022/05/01 05:41:57;;;;;;;13.90;6.30;;;13.00;99.90;;;;;;5051883;28;20610;-59
2022/05/01 05:44:23;;;;;;;11.10;6.00;;;13.20;99.90;;;;;;5051638;28;20221;-59
2022/05/01 05:46:50;;;;;;;11.77;6.60;;;13.30;99.90;;;;;;5052122;28;20201;-60
2022/05/01 05:49:17;;;;;;;10.10;5.80;;;13.40;99.90;;;;;;5051674;28;20225;-60
2022/05/01 05:51:44;;;;;;;7.70;4.73;;;13.40;99.90;;;;;;5051906;28;20206;-61
2022/05/01 05:54:12;;;;;;;7.53;4.80;;;13.50;99.50;;;;;;5051769;28;20212;-61
2022/05/01 05:56:39;;;;;;;10.17;4.73;;;13.60;99.00;;;;;;5051803;28;20211;-59
2022/05/01 05:59:06;;;;;;;6.20;3.90;;;13.60;98.60;;;;;;5051824;28;20202;-60
2022/05/01 06:01:32;;;;;;;8.77;4.40;;;13.60;97.80;;;;;;5051620;28;20622;-59
2022/05/01 06:03:59;;;;;;;7.10;3.90;;;13.70;96.80;;;;;;5051784;28;20193;-59
2022/05/01 06:06:26;;;;;;;7.27;4.27;;;13.70;97.10;;;;;;5051601;28;20682;-60
2022/05/01 06:08:53;;;;;;;6.97;3.87;;;13.80;97.00;;;;;;5051558;28;20687;-59
2022/05/01 06:11:21;;;;;;;6.73;3.53;;;13.80;96.90;;;;;;5051473;28;20207;-60
2022/05/01 06:13:48;;;;;;;5.83;3.80;;;13.90;96.50;;;;;;5051328;28;20209;-59
2022/05/01 06:16:15;;;;;;;7.77;3.70;;;13.90;96.50;;;;;;5051444;28;20212;-60
2022/05/01 06:18:42;;;;;;;6.47;3.80;;;14.00;96.00;;;;;;5051490;28;20360;-60
2022/05/01 06:21:09;;;;;;;8.90;4.47;;;14.00;95.80;;;;;;5051042;28;20245;-60
2022/05/01 06:23:36;;;;;;;9.47;4.07;;;14.00;95.70;;;;;;5052162;28;20216;-60
2022/05/01 06:26:04;;;;;;;9.43;5.00;;;14.10;95.60;;;;;;5055606;28;20668;-60
2022/05/01 06:28:32;;;;;;;10.00;5.53;;;14.10;95.60;;;;;;5055429;28;20652;-60
2022/05/01 06:31:00;;;;;;;10.67;5.47;;;14.20;95.90;;;;;;5055451;28;20209;-57
2022/05/01 06:33:29;;;;;;;8.47;5.10;;;14.20;96.20;;;;;;5055555;28;20201;-60
2022/05/01 06:35:57;;;;;;;8.57;4.83;;;14.30;95.90;;;;;;5055013;28;20212;-58
2022/05/01 06:38:24;;;;;;;8.93;5.10;;;14.30;95.70;;;;;;5055467;28;20224;-60
2022/05/01 06:40:51;;;;;;;8.50;5.20;;;14.30;94.90;;;;;;5055286;28;20205;-60
2022/05/01 06:43:19;;;;;;;8.87;4.67;;;14.30;95.10;;;;;;5054807;28;20216;-59
2022/05/01 06:45:47;;;;;;;9.73;4.93;;;14.30;94.60;;;;;;5055566;28;20206;-59
2022/05/01 06:48:15;;;;;;;7.10;4.60;;;14.30;94.50;;;;;;5054890;28;20245;-60
2022/05/01 06:50:42;;;;;;;9.40;4.33;;;14.30;94.20;;;;;;5054672;28;20229;-60
2022/05/01 06:53:09;;;;;;;9.67;4.33;;;14.40;94.50;;;;;;5054580;28;20209;-61
2022/05/01 06:55:35;;;;;;;8.70;4.53;;;14.40;94.60;;;;;;5054705;28;20202;-60
2022/05/01 06:58:02;;;;;;;7.13;3.60;;;14.50;94.20;;;;;;5054772;28;20719;-60
2022/05/01 07:00:29;;;;;;;7.00;3.40;;;14.60;94.30;;;;;;5054747;28;20209;-60
2022/05/01 07:02:58;;;;;;;7.27;4.40;;;14.60;93.80;;;;;;5054945;28;20390;-59
2022/05/01 07:05:25;;;;;;;6.73;3.83;;;14.70;93.90;;;;;;5054711;28;20236;-61
2022/05/01 07:07:54;;;;;;;6.67;3.20;;;14.80;93.60;;;;;;5054697;28;20209;-59
2022/05/01 07:10:22;;;;;;;4.90;2.60;;;14.80;92.90;;;;;;5054117;28;20229;-59
2022/05/01 07:12:49;;;;;;;4.37;2.77;;;14.90;92.70;;;;;;5054315;28;20222;-60
2022/05/01 07:15:16;;;;;;;7.13;2.83;;;14.90;92.40;;;;;;5054649;28;20211;-59
2022/05/01 07:17:43;;;;;;;5.73;2.70;;;15.00;92.00;;;;;;5054544;28;20212;-59
2022/05/01 07:20:12;;;;;;;6.20;2.90;;;15.00;90.70;;;;;;5054373;28;20703;-61
2022/05/01 07:22:39;;;;;;;7.33;2.90;;;15.10;90.80;;;;;;5054430;28;20280;-60
2022/05/01 07:25:06;;;;;;;5.93;2.40;;;15.10;91.10;;;;;;5053976;28;20202;-61
2022/05/01 07:27:33;;;;;;;5.73;2.43;;;15.20;91.40;;;;;;5054313;28;20567;-61
2022/05/01 07:30:00;;;;;;;4.60;2.13;;;15.10;88.70;;;;;;5054253;28;20236;-59
2022/05/01 07:32:26;;;;;;;3.20;1.97;;;15.10;89.60;;;;;;5054262;28;20570;-58
2022/05/01 07:34:53;;;;;;;4.90;2.20;;;15.20;89.00;;;;;;5053032;28;20205;-60
2022/05/01 07:37:22;;;;;;;2.80;2.10;;;15.20;88.40;;;;;;5054069;28;20209;-61
2022/05/01 07:39:48;;;;;;;5.83;2.90;;;15.30;87.10;;;;;;5054302;28;20594;-62
2022/05/01 07:42:15;;;;;;;3.47;2.30;;;15.30;86.80;;;;;;5054010;28;20228;-59
2022/05/01 07:44:42;;;;;;;2.27;2.00;;;15.30;87.00;;;;;;5053716;28;20225;-60
2022/05/01 07:47:09;;;;;;;3.47;2.03;;;15.40;86.00;;;;;;5053851;28;20205;-62
2022/05/01 07:49:36;;;;;;;5.00;2.00;;;15.50;85.30;;;;;;5054009;28;20232;-60
2022/05/01 07:52:03;;;;;;;2.57;2.00;;;15.50;84.20;;;;;;5053678;28;20216;-59
2022/05/01 07:54:31;;;;;;;6.97;2.53;;;15.70;85.60;;;;;;5053893;28;20208;-61
2022/05/01 07:56:57;;;;;;;4.63;2.17;;;15.90;86.80;;;;;;5053573;28;20206;-61
2022/05/01 07:59:24;;;;;;;3.47;1.97;;;16.10;86.70;;;;;;5053738;28;20209;-60
2022/05/01 08:01:52;;;;;;;3.50;1.77;;;16.10;83.90;;;;;;5053235;28;20252;-59
2022/05/01 08:04:30;;;;;;;4.67;1.93;;;16.20;83.60;;;;;;5053665;28;20244;-60
2022/05/01 08:06:59;;;;;;;2.60;2.00;;;16.30;83.40;;;;;;5053669;28;20627;-60
2022/05/01 08:09:26;;;;;;;3.87;1.93;;;16.30;83.00;;;;;;5053412;28;20236;-59
2022/05/01 08:11:54;;;;;;;2.63;1.90;;;16.30;82.40;;;;;;5053226;28;20216;-60
2022/05/01 08:14:21;;;;;;;3.77;2.20;;;16.30;82.50;;;;;;5053554;28;20722;-60
2022/05/01 08:16:48;;;;;;;3.77;2.27;;;16.30;81.20;;;;;;5053524;28;20695;-60
2022/05/01 08:22:00;;;;;;;4.73;2.20;;;16.20;78.70;;;;;;5053194;28;20263;-61
2022/05/01 08:24:27;;;;;;;3.47;1.80;;;16.00;78.10;;;;;;5053463;28;20201;-60
2022/05/01 08:26:56;;;;;;;3.40;1.83;;;15.90;78.30;;;;;;5053416;28;20567;-59
2022/05/01 08:29:22;;;;;;;2.90;1.80;;;15.80;77.00;;;;;;5053158;28;20559;-60
2022/05/01 08:31:50;;;;;;;2.30;1.80;;;15.70;76.90;;;;;;5053074;28;20208;-59
2022/05/01 08:34:17;;;;;;;2.80;2.10;;;15.60;77.70;;;;;;5053135;28;20659;-60
2022/05/01 08:36:45;;;;;;;2.40;1.67;;;15.60;78.80;;;;;;5052676;28;20209;-59
2022/05/01 08:39:12;;;;;;;2.67;1.90;;;15.60;78.50;;;;;;5053040;28;20205;-60
2022/05/01 08:41:39;;;;;;;3.30;2.10;;;15.70;78.90;;;;;;5053032;28;20687;-59
2022/05/01 08:44:13;;;;;;;3.43;2.33;;;15.80;79.10;;;;;;5052677;28;20729;-60
2022/05/01 08:46:53;;;;;;;2.80;1.90;;;15.80;79.80;;;;;;5052548;28;20193;-60
2022/05/01 08:49:21;;;;;;;3.47;2.23;;;15.70;80.00;;;;;;5052769;28;20229;-60
2022/05/01 08:51:49;;;;;;;5.00;2.17;;;15.80;79.70;;;;;;5052583;28;20694;-60
2022/05/01 08:54:16;;;;;;;3.80;2.10;;;15.90;79.70;;;;;;5052758;28;20210;-60
2022/05/01 08:56:44;;;;;;;2.63;1.97;;;16.00;79.30;;;;;;5052208;28;20210;-59
2022/05/01 08:59:14;;;;;;;2.73;2.00;;;16.10;78.80;;;;;;5052455;28;20217;-59
2022/05/01 09:01:42;;;;;;;2.60;1.97;;;16.10;78.40;;;;;;5052109;28;20235;-59
2022/05/01 09:04:12;;;;;;;4.30;1.90;;;16.20;78.40;;;;;;5052544;28;20625;-59
2022/05/01 09:06:40;;;;;;;3.50;2.10;;;16.30;79.10;;;;;;5052712;28;20236;-60
2022/05/01 09:09:07;;;;;;;4.10;2.20;;;16.30;78.70;;;;;;5052107;28;20220;-61
2022/05/01 09:14:22;;;;;;;2.73;1.97;;;16.30;79.00;;;;;;5052245;28;20189;-60
2022/05/01 09:17:14;;;;;;;4.00;2.33;;;16.40;79.30;;;;;;5052126;28;20205;-61
2022/05/01 09:19:41;;;;;;;3.27;2.40;;;16.40;79.30;;;;;;5052260;28;20547;-59
2022/05/01 09:22:07;;;;;;;3.67;2.53;;;16.40;78.10;;;;;;5051980;28;20254;-60
2022/05/01 09:24:35;;;;;;;3.47;2.27;;;16.40;78.20;;;;;;5052141;28;20212;-59
2022/05/01 09:27:02;;;;;;;2.80;2.00;;;16.50;78.20;;;;;;5051719;28;20698;-59
2022/05/01 09:29:34;;;;;;;6.13;3.00;;;16.50;78.20;;;;;;5051735;28;20209;-60
2022/05/01 09:32:03;;;;;;;6.70;2.70;;;16.50;77.90;;;;;;5051780;28;20194;-60
2022/05/01 09:34:31;;;;;;;3.93;2.20;;;16.60;77.20;;;;;;5051931;28;20213;-60
2022/05/01 09:37:00;;;;;;;4.03;2.20;;;16.50;75.90;;;;;;5051436;28;20220;-60
2022/05/01 09:39:28;;;;;;;4.23;2.43;;;16.40;76.30;;;;;;5052198;28;20668;-61
2022/05/01 09:42:12;;;;;;;5.00;2.77;;;16.40;77.20;;;;;;5051581;28;20210;-59
2022/05/01 09:44:40;;;;;;;2.67;1.90;;;16.50;77.40;;;;;;5051263;28;20226;-60
2022/05/01 09:47:07;;;;;;;3.30;2.17;;;16.60;77.40;;;;;;5051861;28;20205;-59
2022/05/01 09:49:48;;;;;;;3.83;2.50;;;16.70;75.90;;;;;;5051620;28;20214;-60
2022/05/01 09:52:15;;;;;;;3.37;2.17;;;16.70;75.00;;;;;;5051132;28;20193;-59
2022/05/01 09:54:42;;;;;;;4.47;2.33;;;16.80;75.30;;;;;;5051406;28;20407;-59
2022/05/01 09:57:23;;;;;;;4.43;2.30;;;16.90;75.90;;;;;;5051560;28;20217;-59
2022/05/01 09:59:52;;;;;;;3.40;2.20;;;17.00;76.10;;;;;;5051235;28;20244;-59
2022/05/01 10:02:29;;;;;;;2.97;2.00;;;17.00;76.40;;;;;;5051377;28;20672;-59
2022/05/01 10:05:02;;;;;;;3.10;1.80;;;17.10;75.80;;;;;;5051424;28;20548;-60
2022/05/01 10:07:32;;;;;;;3.00;1.87;;;17.20;76.10;;;;;;5051654;28;20200;-60
2022/05/01 10:10:00;;;;;;;3.30;2.07;;;17.30;76.80;;;;;;5051499;28;20226;-59
2022/05/01 10:12:31;;;;;;;3.87;2.37;;;17.40;76.70;;;;;;5051641;28;20212;-61
2022/05/01 10:14:59;;;;;;;3.80;2.10;;;17.40;75.20;;;;;;5051175;28;20197;-61
2022/05/01 10:17:26;;;;;;;4.13;2.20;;;17.50;75.80;;;;;;5051185;28;20219;-61
2022/05/01 10:19:53;;;;;;;3.10;2.07;;;17.60;75.80;;;;;;5051274;28;20241;-60
2022/05/01 10:22:21;;;;;;;5.87;2.30;;;17.70;75.50;;;;;;5051328;28;20201;-60
2022/05/01 10:24:48;;;;;;;3.57;2.43;;;17.80;76.10;;;;;;5051164;28;20224;-61
2022/05/01 10:27:25;;;;;;;3.80;2.40;;;17.80;75.60;;;;;;5051311;28;20213;-59
2022/05/01 10:33:05;;;;;;;4.27;2.60;;;17.80;75.60;;;;;;5050956;28;20315;-61
2022/05/01 10:36:09;;;;;;;4.70;2.20;;;17.80;76.10;;;;;;5051159;28;20194;-60
2022/05/01 10:38:42;;;;;;;2.83;2.20;;;17.80;76.30;;;;;;5048484;28;20660;-60
2022/05/01 10:41:11;;;;;;;5.13;2.50;;;17.80;75.60;;;;;;5051304;28;20222;-60
2022/05/01 10:43:38;;;;;;;3.60;2.70;;;17.80;75.10;;;;;;5051119;28;20221;-59
2022/05/01 10:46:27;;;;;;;4.80;2.60;;;17.80;73.60;;;;;;5051362;28;20215;-59
2022/05/01 10:48:55;;;;;;;3.93;2.43;;;17.70;74.00;;;;;;5051440;28;20203;-60
2022/05/01 10:51:52;;;;;;;3.03;1.93;;;17.60;72.70;;;;;;5050787;28;20222;-59
2022/05/01 10:54:38;;;;;;;3.80;2.40;;;17.70;72.80;;;;;;5051207;28;20658;-60
2022/05/01 10:57:16;;;;;;;3.40;2.50;;;17.70;72.80;;;;;;5051243;28;20191;-59
2022/05/01 10:59:51;;;;;;;4.10;2.23;;;17.70;73.20;;;;;;5051219;28;20540;-59
2022/05/01 11:02:24;;;;;;;4.00;2.47;;;17.80;73.80;;;;;;5051067;28;20599;-59
2022/05/01 11:04:52;;;;;;;4.47;2.10;;;17.90;72.50;;;;;;5050923;28;20554;-59
2022/05/01 11:07:20;;;;;;;3.90;2.30;;;17.90;71.40;;;;;;5051402;28;20208;-60
2022/05/01 11:09:49;;;;;;;5.67;2.40;;;17.90;71.80;;;;;;5052306;28;20203;-59
2022/05/01 11:12:19;;;;;;;4.70;2.40;;;17.90;72.80;;;;;;5054315;28;20207;-62
2022/05/01 11:14:52;;;;;;;2.33;1.97;;;18.00;73.30;;;;;;5054318;28;20189;-60
2022/05/01 11:17:54;;;;;;;4.10;2.43;;;18.10;73.00;;;;;;5054594;28;20196;-58
2022/05/01 11:20:32;;;;;;;4.77;2.47;;;18.20;72.90;;;;;;5054352;28;20188;-60
2022/05/01 11:23:23;;;;;;;2.97;2.20;;;18.10;72.70;;;;;;5054703;28;20192;-59
2022/05/01 11:26:05;;;;;;;4.03;2.33;;;18.10;72.70;;;;;;5054070;28;20212;-59
2022/05/01 11:28:52;;;;;;;3.50;2.50;;;18.10;71.20;;;;;;5054199;28;20191;-60
2022/05/01 11:34:51;;;;;;;4.30;2.40;;;17.90;70.60;;;;;;5053956;28;20224;-60
2022/05/01 11:37:19;;;;;;;4.47;2.37;;;17.80;71.10;;;;;;5054270;28;20196;-62
2022/05/01 11:40:15;;;;;;;4.70;2.30;;;17.80;70.40;;;;;;5054196;28;20201;-62
2022/05/01 11:42:43;;;;;;;4.97;2.07;;;17.80;70.60;;;;;;5054265;28;20194;-61
2022/05/01 11:45:11;;;;;;;4.47;2.30;;;17.80;71.10;;;;;;5054286;28;20201;-61
2022/05/01 11:47:40;;;;;;;4.33;2.23;;;17.80;70.80;;;;;;5053545;28;20204;-60
2022/05/01 11:50:16;;;;;;;2.87;2.20;;;17.80;71.40;;;;;;5054056;28;20202;-60
2022/05/01 11:52:49;;;;;;;3.93;2.30;;;17.80;70.60;;;;;;5053907;28;20197;-64
2022/05/01 11:55:19;;;;;;;3.60;2.37;;;17.80;70.30;;;;;;5054035;28;20249;-59
2022/05/01 12:03:30;;;;;;;3.50;1.90;;;17.90;72.70;;;;;;5053366;28;20318;-60
2022/05/01 12:05:57;;;;;;;4.73;2.30;;;17.90;73.00;;;;;;5053819;28;20275;-60
2022/05/01 12:08:24;;;;;;;2.87;2.10;;;18.00;73.40;;;;;;5053421;28;20209;-59
2022/05/01 12:10:52;;;;;;;15.40;8.97;;;18.10;73.80;;;;;;5053349;28;20227;-60
2022/05/01 12:13:22;;;;;;;7.37;4.37;;;18.20;74.10;;;;;;5053429;28;20219;-60
2022/05/01 12:15:50;;;;;;;5.00;2.70;;;18.20;70.20;;;;;;5053591;28;20230;-60
2022/05/01 12:18:17;;;;;;;5.67;2.63;;;18.10;70.60;;;;;;5053466;28;20668;-60
2022/05/01 12:20:45;;;;;;;4.07;2.43;;;18.10;70.90;;;;;;5052661;28;20217;-60
2022/05/01 12:23:13;;;;;;;5.77;2.70;;;18.00;70.70;;;;;;5053292;28;20205;-60
2022/05/01 12:25:41;;;;;;;3.77;2.70;;;18.00;71.10;;;;;;5053450;28;20224;-60
2022/05/01 12:28:10;;;;;;;4.03;2.63;;;18.00;71.20;;;;;;5053200;28;20214;-61
2022/05/01 12:30:39;;;;;;;4.20;2.63;;;18.10;70.60;;;;;;5052994;28;20604;-60
2022/05/01 12:33:06;;;;;;;8.90;2.80;;;18.10;69.40;;;;;;5053195;28;20227;-60
2022/05/01 12:35:53;;;;;;;5.67;2.70;;;18.00;68.40;;;;;;5053115;28;20218;-61
2022/05/01 12:38:20;;;;;;;3.77;2.80;;;17.90;68.50;;;;;;5052822;28;20209;-61
2022/05/01 12:46:25;;;;;;;6.33;2.77;;;17.90;68.90;;;;;;5052789;28;20287;-61
2022/05/01 12:48:53;;;;;;;4.20;2.67;;;17.80;70.00;;;;;;5052613;28;20207;-61
2022/05/01 12:51:20;;;;;;;4.23;2.90;;;17.90;70.40;;;;;;5052710;28;20221;-60
2022/05/01 12:53:47;;;;;;;5.17;2.70;;;17.90;70.60;;;;;;5052497;28;20222;-61
2022/05/01 12:56:20;;;;;;;3.50;2.37;;;18.00;69.70;;;;;;5052535;28;20211;-60
2022/05/01 12:58:47;;;;;;;4.70;2.77;;;18.00;70.00;;;;;;5052471;28;20192;-59
2022/05/01 13:01:27;;;;;;;4.80;2.77;;;18.00;70.40;;;;;;5052926;28;20263;-62
2022/05/01 13:03:54;;;;;;;3.40;2.47;;;18.00;69.40;;;;;;5053011;28;20241;-64
2022/05/01 13:06:23;;;;;;;6.90;3.07;;;18.10;69.80;;;;;;5052790;28;20205;-60
2022/05/01 13:09:06;;;;;;;3.47;2.50;;;18.10;69.50;;;;;;5052534;28;20206;-59
2022/05/01 13:11:35;;;;;;;5.47;3.10;;;18.10;69.20;;;;;;5052267;28;20211;-60
2022/05/01 13:14:04;;;;;;;5.17;3.13;;;18.00;67.90;;;;;;5052435;28;20207;-59
2022/05/01 13:16:44;;;;;;;5.37;2.87;;;17.90;68.50;;;;;;5052259;28;20208;-60
2022/05/01 13:19:12;;;;;;;6.40;2.77;;;17.90;68.80;;;;;;5051824;28;20208;-61
2022/05/01 13:21:42;;;;;;;6.30;2.40;;;17.90;68.60;;;;;;5052316;28;20203;-59
2022/05/01 13:24:12;;;;;;;4.60;2.50;;;17.80;69.20;;;;;;5051975;28;20207;-60
2022/05/01 13:26:39;;;;;;;3.00;2.30;;;17.80;69.40;;;;;;5051848;28;20203;-61